This is the latest recevied weather packets stored in our database for station/object EA5CH. If no packets are shown the sender has not sent any weather packets the latest 10 day(s).
| Time | Temp. | Humidity | Pressure | Rain* | Wind** | Luminosity | Snow |
|---|---|---|---|---|---|---|---|
| 1777438518 | 15.56° C | 83% | 1010.6 hPa | 0 mm | - | - | - |
| 1777433718 | 16.11° C | 84% | 1010.5 hPa | 0 mm | - | - | - |
| 1777429518 | 16.67° C | 87% | 1010.7 hPa | 0 mm | - | - | - |
| 1777425938 | 17.22° C | 88% | 1011.1 hPa | 0 mm | - | - | - |
| 1777422918 | 17.78° C | 82% | 1011.4 hPa | 0 mm | - | - | - |
| 1777419319 | 18.89° C | 72% | 1010.8 hPa | 0 mm | - | - | - |
| 1777410918 | 17.22° C | 83% | 1012.5 hPa | 0 mm | - | - | - |
| 1777410319 | 17.78° C | 82% | 1012.5 hPa | 0 mm | - | - | - |
| 1777409718 | 18.33° C | 83% | 1012.5 hPa | 0 mm | - | - | - |
| 1777407919 | 18.33° C | 82% | 1012.5 hPa | 0 mm | - | - | - |
| 1777406718 | 18.89° C | 81% | 1012.6 hPa | 0 mm | - | - | - |
| 1777406119 | 18.89° C | 80% | 1012.5 hPa | 0 mm | - | - | - |
| 1777399519 | 20.56° C | 73% | 1011.7 hPa | 0 mm | - | - | - |
| 1777398959 | 21.11° C | 72% | 1011.1 hPa | 0 mm | - | - | - |
| 1777397118 | 21.11° C | 72% | 1010.2 hPa | 0 mm | - | - | - |
| 1777394119 | 22.22° C | 70% | 1009.9 hPa | 0 mm | - | - | - |
| 1777392318 | 21.67° C | 71% | 1009.8 hPa | 0 mm | - | - | - |
| 1777389318 | 21.67° C | 69% | 1010.2 hPa | 0 mm | - | - | - |
| 1777387518 | 21.67° C | 68% | 1010.5 hPa | 0 mm | - | - | - |
| 1777386339 | 21.67° C | 69% | 1011 hPa | 0 mm | - | - | - |
| 1777385138 | 21.11° C | 68% | 1011.3 hPa | 0 mm | - | - | - |
| 1777382719 | 21.11° C | 63% | 1012.1 hPa | 0 mm | - | - | - |
| 1777380319 | 20.56° C | 72% | 1013.1 hPa | 0 mm | - | - | - |
| 1777377939 | 18.89° C | 78% | 1012.9 hPa | 0.25 mm | - | - | - |
| 1777377318 | 18.33° C | 82% | 1013.7 hPa | 0.25 mm | - | - | - |
* Rain latest hour (hover to see other rain measurements)
** Current wind speed in m/s (hover to see current wind gust speed)